Time;durP1;ratioP1;P1;durP2;ratioP2;P2;SDS_P1;SDS_P2;PMS_P1;PMS_P2;Temp;Humidity;BMP_temperature;BMP_pressure;BME280_temperature;BME280_humidity;BME280_pressure;Samples;Min_cycle;Max_cycle;Signal;HPM_P1;HPM_P2
2022/04/28 00:01:08;;;;;;;0.70;0.20;;;12.20;1.00;;;;;;5069845;28;20467;-81
2022/04/28 00:03:36;;;;;;;0.60;0.10;;;12.20;1.00;;;;;;5062454;28;20474;-82
2022/04/28 00:06:06;;;;;;;0.70;0.30;;;12.20;1.00;;;;;;5059161;28;20431;-82
2022/04/28 00:08:34;;;;;;;0.83;0.57;;;12.20;1.00;;;;;;5058558;28;20957;-81
2022/04/28 00:11:02;;;;;;;1.47;0.77;;;12.10;1.00;;;;;;5060365;28;20489;-81
2022/04/28 00:13:31;;;;;;;0.60;0.10;;;;;;;;;;5062680;28;20490;-81
2022/04/28 00:15:59;;;;;;;2.60;0.40;;;;;;;;;;5067099;28;20510;-80
2022/04/28 00:18:27;;;;;;;0.73;0.60;;;;;;;;;;5061894;28;20542;-82
2022/04/28 00:20:55;;;;;;;0.80;0.70;;;12.00;1.00;;;;;;5062199;28;20451;-80
2022/04/28 00:23:30;;;;;;;0.60;0.20;;;12.00;1.00;;;;;;5057881;28;20980;-82
2022/04/28 00:25:59;;;;;;;0.70;0.30;;;12.00;1.00;;;;;;5056233;28;20957;-82
2022/04/28 00:28:27;;;;;;;0.60;0.20;;;11.90;1.00;;;;;;5057120;28;20460;-82
2022/04/28 00:30:55;;;;;;;2.77;2.43;;;11.90;1.00;;;;;;5057339;28;20446;-82
2022/04/28 00:33:23;;;;;;;0.60;0.20;;;11.90;1.00;;;;;;5072117;28;20465;-85
2022/04/28 00:35:51;;;;;;;0.80;0.47;;;;;;;;;;5071465;28;20522;-84
2022/04/28 00:38:19;;;;;;;2.20;2.10;;;14.00;1.00;;;;;;5071931;28;20506;-83
2022/04/28 00:40:49;;;;;;;0.60;0.50;;;;;;;;;;5072485;28;20486;-83
2022/04/28 00:43:19;;;;;;;2.50;0.50;;;11.80;1.00;;;;;;5069664;28;20481;-83
2022/04/28 00:45:48;;;;;;;1.57;1.50;;;11.80;1.00;;;;;;5078223;28;20485;-83
2022/04/28 00:51:04;;;;;;;1.20;1.07;;;11.70;1.00;;;;;;5056547;28;20477;-83
2022/04/28 00:53:36;;;;;;;0.70;0.30;;;11.70;1.00;;;;;;5044510;28;21009;-82
2022/04/28 00:56:06;;;;;;;0.60;0.20;;;;;;;;;;5041584;28;20439;-83
2022/04/28 00:58:34;;;;;;;0.60;0.10;;;11.80;1.00;;;;;;5039994;28;20455;-82
2022/04/28 01:01:01;;;;;;;0.77;0.60;;;11.80;1.00;;;;;;5041584;28;20513;-83
2022/04/28 01:03:30;;;;;;;0.60;0.10;;;;;;;;;;5040768;28;20455;-83
2022/04/28 01:06:03;;;;;;;0.60;0.20;;;;;;;;;;5058831;28;20454;-83
2022/04/28 01:08:31;;;;;;;0.60;0.20;;;11.80;1.00;;;;;;5073437;28;20849;-83
2022/04/28 01:11:00;;;;;;;0.60;0.20;;;11.80;1.00;;;;;;5063980;28;20439;-83
2022/04/28 01:13:31;;;;;;;0.60;0.20;;;;;;;;;;5058813;28;20458;-82
2022/04/28 01:15:59;;;;;;;0.60;0.20;;;11.70;1.00;;;;;;5058986;28;20476;-83
2022/04/28 01:18:28;;;;;;;0.60;0.10;;;;;;;;;;5059602;28;20454;-82
2022/04/28 01:21:01;;;;;;;0.60;0.10;;;11.50;1.00;;;;;;5058695;28;20466;-82
2022/04/28 01:23:31;;;;;;;0.60;0.10;;;13.30;1.00;;;;;;5062462;28;20478;-81
2022/04/28 01:25:59;;;;;;;1.90;1.80;;;11.50;1.00;;;;;;5061566;28;20438;-81
2022/04/28 01:28:27;;;;;;;1.33;0.50;;;11.50;1.00;;;;;;5065717;28;20428;-82
2022/04/28 01:30:56;;;;;;;0.60;0.17;;;;;;;;;;5079665;28;20469;-80
2022/04/28 01:33:24;;;;;;;0.60;0.10;;;11.50;1.00;;;;;;5075906;28;20521;-82
2022/04/28 01:35:52;;;;;;;0.60;0.10;;;;;;;;;;5061264;28;20503;-81
2022/04/28 01:38:22;;;;;;;0.60;0.10;;;;;;;;;;5059173;28;20447;-82
2022/04/28 01:40:50;;;;;;;0.60;0.10;;;11.50;1.00;;;;;;5058127;28;20477;-82
2022/04/28 01:43:18;;;;;;;0.60;0.10;;;11.50;1.00;;;;;;5058210;28;20454;-83
2022/04/28 01:45:46;;;;;;;0.60;0.10;;;11.50;1.00;;;;;;5057095;28;20458;-81
2022/04/28 01:48:14;;;;;;;0.60;0.10;;;11.50;1.00;;;;;;5056702;28;20450;-80
2022/04/28 01:54:57;;;;;;;0.60;0.40;;;11.50;1.00;;;;;;5058365;28;21092;-81
2022/04/28 01:56:17;;;;;;;0.60;0.10;;;;;;;;;;5061078;28;20454;-83
2022/04/28 01:58:45;;;;;;;0.60;0.20;;;11.50;1.00;;;;;;5067264;28;20454;-83
2022/04/28 02:01:13;;;;;;;0.60;0.10;;;11.50;1.00;;;;;;5061406;28;20482;-82
2022/04/28 02:03:42;;;;;;;0.60;0.20;;;11.50;1.00;;;;;;5061625;28;20469;-82
2022/04/28 02:06:13;;;;;;;0.60;0.10;;;11.50;1.00;;;;;;5060232;28;20486;-82
2022/04/28 02:08:50;;;;;;;3.90;2.00;;;;;;;;;;5060574;28;20429;-83
2022/04/28 02:11:20;;;;;;;0.60;0.10;;;11.40;1.00;;;;;;5059080;28;20454;-82
2022/04/28 02:13:48;;;;;;;0.60;0.10;;;;;;;;;;5059514;28;20485;-83
2022/04/28 02:16:18;;;;;;;0.60;0.10;;;11.40;1.00;;;;;;5059434;28;20772;-82
2022/04/28 02:18:46;;;;;;;0.60;0.30;;;11.40;1.00;;;;;;5071542;28;20458;-82
2022/04/28 02:21:20;;;;;;;0.60;0.17;;;;;;;;;;5078342;28;20532;-83
2022/04/28 02:23:51;;;;;;;0.60;0.10;;;;;;;;;;5071772;28;20470;-82
2022/04/28 02:26:19;;;;;;;0.70;0.30;;;11.30;1.00;;;;;;5059263;28;20431;-82
2022/04/28 02:28:46;;;;;;;1.60;0.70;;;11.30;1.00;;;;;;5071315;28;20462;-82
2022/04/28 02:31:14;;;;;;;0.60;0.10;;;11.30;1.00;;;;;;5077758;28;20447;-83
2022/04/28 02:33:42;;;;;;;0.60;0.10;;;11.30;1.00;;;;;;5076383;28;20457;-83
2022/04/28 02:36:13;;;;;;;0.60;0.10;;;11.30;1.00;;;;;;5073478;28;20475;-82
2022/04/28 02:38:44;;;;;;;1.53;0.87;;;;;;;;;;5066765;28;20458;-82
2022/04/28 02:41:20;;;;;;;0.60;0.10;;;;;;;;;;5060839;28;20474;-82
2022/04/28 02:43:49;;;;;;;0.60;0.20;;;11.20;1.00;;;;;;5059492;28;20478;-82
2022/04/28 02:46:17;;;;;;;0.60;0.10;;;11.20;1.00;;;;;;5065900;28;20446;-82
2022/04/28 02:48:46;;;;;;;0.60;0.10;;;11.20;1.00;;;;;;5057766;28;20463;-83
2022/04/28 02:51:15;;;;;;;0.70;0.30;;;11.10;1.00;;;;;;5059447;28;20466;-81
2022/04/28 02:53:43;;;;;;;0.60;0.10;;;11.10;1.00;;;;;;5060541;28;20462;-81
2022/04/28 02:56:11;;;;;;;0.60;0.10;;;;;;;;;;5059122;28;20437;-81
2022/04/28 02:58:41;;;;;;;0.60;0.20;;;11.10;1.00;;;;;;5056935;28;20473;-82
2022/04/28 03:01:09;;;;;;;0.60;0.10;;;11.10;1.00;;;;;;5057283;28;20477;-81
2022/04/28 03:03:37;;;;;;;0.60;0.10;;;11.10;1.00;;;;;;5064824;28;20546;-82
2022/04/28 03:11:36;;;;;;;0.60;0.10;;;11.10;1.00;;;;;;5075731;28;20456;-81
2022/04/28 03:14:06;;;;;;;0.60;0.10;;;11.10;1.00;;;;;;5063635;28;20490;-81
2022/04/28 03:16:35;;;;;;;0.60;0.10;;;11.10;1.00;;;;;;5059130;28;20454;-81
2022/04/28 03:19:03;;;;;;;0.60;0.10;;;11.00;1.00;;;;;;5060795;28;20577;-82
2022/04/28 03:21:32;;;;;;;0.60;0.10;;;11.00;1.00;;;;;;5058926;28;20532;-82
2022/04/28 03:24:01;;;;;;;0.60;0.10;;;10.90;1.00;;;;;;5058948;28;20473;-83
2022/04/28 03:26:29;;;;;;;0.60;0.10;;;10.90;1.00;;;;;;5058809;28;20538;-81
2022/04/28 03:28:58;;;;;;;0.60;0.20;;;10.80;1.00;;;;;;5058535;28;20960;-82
2022/04/28 03:31:28;;;;;;;0.60;0.10;;;10.80;1.00;;;;;;5059958;28;20449;-81
2022/04/28 03:33:56;;;;;;;0.60;0.10;;;10.70;1.00;;;;;;5061884;28;20478;-82
2022/04/28 03:39:09;;;;;;;0.60;0.10;;;10.60;1.00;;;;;;5059805;28;21193;-82
2022/04/28 03:41:37;;;;;;;0.60;0.10;;;10.50;1.00;;;;;;5039595;28;20929;-80
2022/04/28 03:44:05;;;;;;;0.60;0.10;;;10.50;1.00;;;;;;5038964;28;20517;-83
2022/04/28 03:46:34;;;;;;;0.60;0.10;;;10.50;1.00;;;;;;5038542;28;20779;-82
2022/04/28 03:49:02;;;;;;;0.60;0.10;;;10.50;1.00;;;;;;5040351;28;20443;-82
2022/04/28 03:51:30;;;;;;;0.60;0.10;;;10.40;1.00;;;;;;5051503;28;20525;-81
2022/04/28 03:54:00;;;;;;;0.60;0.10;;;10.40;1.00;;;;;;5059746;28;20462;-82
2022/04/28 03:56:30;;;;;;;0.60;0.10;;;10.40;1.00;;;;;;5060560;28;20781;-81
2022/04/28 03:58:58;;;;;;;0.60;0.10;;;10.30;1.00;;;;;;5057758;28;20461;-81
2022/04/28 04:01:26;;;;;;;0.60;0.30;;;10.30;1.00;;;;;;5059455;28;20865;-81
2022/04/28 04:03:55;;;;;;;0.60;0.10;;;10.30;1.00;;;;;;5059596;28;20496;-83
2022/04/28 04:06:24;;;;;;;0.60;0.10;;;10.30;1.00;;;;;;5061066;28;20515;-81
2022/04/28 04:08:52;;;;;;;0.60;0.10;;;10.30;1.00;;;;;;5058159;28;20539;-82
2022/04/28 04:11:20;;;;;;;0.60;0.10;;;10.30;1.00;;;;;;5057656;28;20521;-82
2022/04/28 04:13:48;;;;;;;0.60;0.10;;;10.30;1.00;;;;;;5057768;28;20486;-80
2022/04/28 04:16:16;;;;;;;0.60;0.10;;;10.30;1.00;;;;;;5072739;28;20518;-80
2022/04/28 04:18:44;;;;;;;0.60;0.10;;;8.70;1.00;;;;;;5074646;28;20445;-82
2022/04/28 04:21:14;;;;;;;0.60;0.10;;;10.20;1.00;;;;;;5071263;28;20557;-79
2022/04/28 04:23:42;;;;;;;0.60;0.10;;;10.30;1.00;;;;;;5063480;28;20458;-80
2022/04/28 04:26:10;;;;;;;0.60;0.20;;;;;;;;;;5059061;28;20896;-82
2022/04/28 04:28:40;;;;;;;0.60;0.10;;;10.30;1.00;;;;;;5060441;28;20445;-81
2022/04/28 04:33:55;;;;;;;0.60;0.10;;;;;;;;;;5055460;28;20596;-80
2022/04/28 04:36:25;;;;;;;0.60;0.10;;;;;;;;;;5063470;28;20468;-81
2022/04/28 04:38:53;;;;;;;0.60;0.20;;;10.30;1.00;;;;;;5063168;28;20441;-82
2022/04/28 04:41:22;;;;;;;0.60;0.10;;;;;;;;;;5063936;28;20557;-82
2022/04/28 04:43:50;;;;;;;0.60;0.10;;;;;;;;;;5067465;28;21009;-81
2022/04/28 04:46:19;;;;;;;0.60;0.10;;;;;;;;;;5078696;28;20446;-82
2022/04/28 04:48:47;;;;;;;0.60;0.10;;;;;;;;;;5078034;28;20454;-83
2022/04/28 04:51:16;;;;;;;0.60;0.10;;;10.40;1.00;;;;;;5071076;28;20941;-81
2022/04/28 04:53:49;;;;;;;0.60;0.10;;;;;;;;;;5071381;28;20454;-82
2022/04/28 04:56:19;;;;;;;0.60;0.20;;;10.40;1.00;;;;;;5071580;28;20546;-82
2022/04/28 04:58:47;;;;;;;0.60;0.10;;;;;;;;;;5072892;28;20456;-82
2022/04/28 05:01:16;;;;;;;0.60;0.10;;;;;;;;;;5073783;28;20478;-83
2022/04/28 05:03:45;;;;;;;0.60;0.27;;;;;;;;;;5074478;28;20468;-79
2022/04/28 05:06:14;;;;;;;0.60;0.10;;;10.40;1.00;;;;;;5067325;28;20454;-81
2022/04/28 05:08:42;;;;;;;0.60;0.10;;;10.40;1.00;;;;;;5062896;28;20489;-80
2022/04/28 05:11:11;;;;;;;0.60;0.10;;;10.50;1.00;;;;;;5063318;28;20514;-81
2022/04/28 05:13:39;;;;;;;0.60;0.10;;;10.50;1.00;;;;;;5062294;28;20468;-82
2022/04/28 05:16:07;;;;;;;0.60;0.10;;;10.50;1.00;;;;;;5067474;28;20462;-82
2022/04/28 05:18:36;;;;;;;0.60;0.10;;;10.60;1.00;;;;;;5066626;28;20447;-80
2022/04/28 05:21:04;;;;;;;0.60;0.10;;;;;;;;;;5064465;28;20462;-80
2022/04/28 05:23:32;;;;;;;0.60;0.10;;;10.70;1.00;;;;;;5062058;28;20968;-81
2022/04/28 05:26:01;;;;;;;0.60;0.10;;;;;;;;;;5061664;28;20929;-82
2022/04/28 05:28:30;;;;;;;0.60;0.10;;;10.70;1.00;;;;;;5065523;28;20430;-81
2022/04/28 05:30:58;;;;;;;0.60;0.10;;;10.80;1.00;;;;;;5066686;28;20461;-80
2022/04/28 05:33:26;;;;;;;0.60;0.10;;;10.80;1.00;;;;;;5064099;28;20541;-80
2022/04/28 05:35:54;;;;;;;0.60;0.10;;;10.80;1.00;;;;;;5063314;28;20443;-80
2022/04/28 05:38:22;;;;;;;0.60;0.10;;;10.90;1.00;;;;;;5062592;28;20461;-82
2022/04/28 05:40:50;;;;;;;0.60;0.10;;;10.90;1.00;;;;;;5063173;28;20975;-82
2022/04/28 05:46:06;;;;;;;0.60;0.10;;;11.00;1.00;;;;;;5060987;28;20787;-82
2022/04/28 05:48:35;;;;;;;0.60;0.10;;;;;;;;;;5062383;28;20494;-82
2022/04/28 05:51:09;;;;;;;0.60;0.10;;;11.10;1.00;;;;;;5064932;28;20968;-81
2022/04/28 05:53:37;;;;;;;0.60;0.10;;;11.10;1.00;;;;;;5068499;28;20500;-82
2022/04/28 05:56:05;;;;;;;0.60;0.10;;;;;;;;;;5068403;28;20430;-84
2022/04/28 05:58:33;;;;;;;0.60;0.10;;;11.30;1.00;;;;;;5069736;28;20443;-82
2022/04/28 06:01:02;;;;;;;0.60;0.10;;;11.30;1.00;;;;;;5079467;28;20455;-81
2022/04/28 06:03:32;;;;;;;0.60;0.20;;;11.30;1.00;;;;;;5077945;28;20475;-83
2022/04/28 06:06:00;;;;;;;0.60;0.10;;;;;;;;;;5067241;28;20530;-81
2022/04/28 06:08:29;;;;;;;0.60;0.10;;;;;;;;;;5073475;28;20450;-82
2022/04/28 06:10:57;;;;;;;0.60;0.10;;;11.50;1.00;;;;;;5071043;28;20488;-82
2022/04/28 06:13:25;;;;;;;0.60;0.10;;;;;;;;;;5055136;28;20455;-84
2022/04/28 06:15:54;;;;;;;0.60;0.10;;;;;;;;;;5044643;28;20497;-82
2022/04/28 06:18:22;;;;;;;0.60;0.10;;;11.70;1.00;;;;;;5055794;28;20454;-81
2022/04/28 06:20:51;;;;;;;0.60;0.10;;;11.70;1.00;;;;;;5061296;28;20471;-82
2022/04/28 06:23:19;;;;;;;0.60;0.10;;;11.80;1.00;;;;;;5064744;28;20475;-81
2022/04/28 06:25:47;;;;;;;0.70;0.40;;;11.80;1.00;;;;;;5062406;28;20455;-81
2022/04/28 06:28:19;;;;;;;0.60;0.10;;;11.90;1.00;;;;;;5062253;28;20462;-82
2022/04/28 06:30:47;;;;;;;0.60;0.10;;;;;;;;;;5062771;28;20545;-84
2022/04/28 06:33:15;;;;;;;0.60;0.10;;;12.10;1.00;;;;;;5061496;28;20454;-82
2022/04/28 06:35:43;;;;;;;1.43;0.60;;;12.10;1.00;;;;;;5062365;28;20465;-81
2022/04/28 06:38:13;;;;;;;37.70;34.83;;;12.20;1.00;;;;;;5062530;28;20463;-82
2022/04/28 06:40:42;;;;;;;0.60;0.10;;;12.20;1.00;;;;;;5062012;28;20862;-81
2022/04/28 06:43:10;;;;;;;0.60;0.10;;;12.30;1.00;;;;;;5060204;28;20551;-83
2022/04/28 06:45:38;;;;;;;0.60;0.10;;;12.30;1.00;;;;;;5045698;28;20485;-83
2022/04/28 06:48:06;;;;;;;0.60;0.30;;;12.40;1.00;;;;;;5063145;28;20527;-83
2022/04/28 06:50:34;;;;;;;0.60;0.10;;;;;;;;;;5060576;28;20853;-81
2022/04/28 06:53:02;;;;;;;0.60;0.10;;;12.50;1.00;;;;;;5044296;28;20552;-81
2022/04/28 06:55:32;;;;;;;0.60;0.10;;;;;;;;;;5042820;28;20522;-83
2022/04/28 06:58:00;;;;;;;0.70;0.30;;;12.60;1.00;;;;;;5045247;28;20444;-82
2022/04/28 07:00:28;;;;;;;0.60;0.10;;;;;;;;;;5060238;28;20456;-81
2022/04/28 07:02:57;;;;;;;0.60;0.10;;;12.70;1.00;;;;;;5062087;28;20488;-81
2022/04/28 07:05:25;;;;;;;0.60;0.20;;;12.70;1.00;;;;;;5062385;28;20446;-81
2022/04/28 07:07:53;;;;;;;0.60;0.10;;;12.70;1.00;;;;;;5059199;28;20603;-80
2022/04/28 07:10:21;;;;;;;0.97;0.90;;;12.80;1.00;;;;;;5059283;28;20510;-81
2022/04/28 07:12:52;;;;;;;1.20;1.10;;;;;;;;;;5067273;28;20490;-80
2022/04/28 07:15:21;;;;;;;0.60;0.10;;;12.90;1.00;;;;;;5076701;28;20423;-82
2022/04/28 07:17:49;;;;;;;0.60;0.20;;;13.00;1.00;;;;;;5073879;28;20442;-81
2022/04/28 07:20:17;;;;;;;0.60;0.10;;;13.10;1.00;;;;;;5067633;28;20438;-81
2022/04/28 07:22:45;;;;;;;0.60;0.20;;;13.20;1.00;;;;;;5063117;28;20507;-82
2022/04/28 07:25:13;;;;;;;0.60;0.10;;;13.30;1.00;;;;;;5061240;28;20459;-82
2022/04/28 07:27:41;;;;;;;0.60;0.10;;;13.30;1.00;;;;;;5058120;28;20446;-81
2022/04/28 07:30:13;;;;;;;0.60;0.10;;;13.50;1.00;;;;;;5058427;28;20542;-80
2022/04/28 07:32:42;;;;;;;0.60;0.10;;;13.50;1.00;;;;;;5057331;28;20479;-80
2022/04/28 07:35:10;;;;;;;0.60;0.10;;;;;;;;;;5057411;28;20459;-80
2022/04/28 07:37:38;;;;;;;0.60;0.10;;;13.60;1.00;;;;;;5057512;28;20455;-78
2022/04/28 07:40:07;;;;;;;0.60;0.10;;;13.70;1.00;;;;;;5059069;28;20461;-78
2022/04/28 07:42:36;;;;;;;0.60;0.10;;;13.80;1.00;;;;;;5059801;28;20473;-80
2022/04/28 07:45:05;;;;;;;1.27;0.60;;;13.80;1.00;;;;;;5068884;28;20448;-79
2022/04/28 07:47:34;;;;;;;0.60;0.10;;;13.80;1.00;;;;;;5068343;28;20486;-79
2022/04/28 07:50:03;;;;;;;0.60;0.10;;;13.80;1.00;;;;;;5060464;28;21018;-80
2022/04/28 07:52:31;;;;;;;0.60;0.10;;;;;;;;;;5057735;28;20462;-80
2022/04/28 07:54:59;;;;;;;0.70;0.30;;;16.00;1.00;;;;;;5057784;28;20486;-78
2022/04/28 07:57:27;;;;;;;0.60;0.10;;;14.10;1.00;;;;;;5055903;28;20447;-80
2022/04/28 07:59:55;;;;;;;0.60;0.23;;;14.20;1.00;;;;;;5059116;28;20525;-78
2022/04/28 08:02:23;;;;;;;0.60;0.10;;;14.30;1.00;;;;;;5068880;28;20510;-80
2022/04/28 08:05:01;;;;;;;0.60;0.10;;;;;;;;;;5068161;28;20478;-79
2022/04/28 08:07:29;;;;;;;0.60;0.10;;;;;;;;;;5067008;28;20433;-80
2022/04/28 08:09:58;;;;;;;0.60;0.10;;;;;;;;;;5067942;28;20464;-80
2022/04/28 08:12:26;;;;;;;0.60;0.10;;;14.60;1.00;;;;;;5061556;28;20518;-80
2022/04/28 08:15:17;;;;;;;0.60;0.10;;;14.60;1.00;;;;;;5055021;28;20486;-80
2022/04/28 08:17:49;;;;;;;0.60;0.10;;;14.70;1.00;;;;;;5059690;28;20465;-80
2022/04/28 08:20:26;;;;;;;0.60;0.10;;;14.80;1.00;;;;;;5058610;28;20919;-81
2022/04/28 08:22:54;;;;;;;0.60;0.10;;;14.90;1.00;;;;;;5039260;28;20467;-81
2022/04/28 08:25:22;;;;;;;0.60;0.10;;;;;;;;;;5040359;28;20928;-82
2022/04/28 08:27:56;;;;;;;0.60;0.10;;;15.00;1.00;;;;;;5060869;28;20468;-82
2022/04/28 08:30:24;;;;;;;0.60;0.10;;;;;;;;;;5059435;28;20476;-80
2022/04/28 08:32:53;;;;;;;0.60;0.10;;;;;;;;;;5053692;28;20462;-82
2022/04/28 08:35:33;;;;;;;0.60;0.10;;;;;;;;;;5060579;28;20435;-80
2022/04/28 08:38:21;;;;;;;0.60;0.10;;;;;;;;;;5063464;28;20474;-81
2022/04/28 08:40:59;;;;;;;0.60;0.10;;;;;;;;;;5063353;28;20451;-81
2022/04/28 08:43:32;;;;;;;0.60;0.30;;;15.40;99.90;;;;;;5062423;28;20486;-81
2022/04/28 08:49:00;;;;;;;0.60;0.10;;;15.40;99.90;;;;;;5060607;28;20450;-81
2022/04/28 08:51:32;;;;;;;0.60;0.10;;;15.50;99.90;;;;;;5058782;28;20451;-80
2022/04/28 08:54:01;;;;;;;0.60;0.17;;;15.60;99.90;;;;;;5059183;28;20464;-79
2022/04/28 08:56:31;;;;;;;0.60;0.10;;;15.60;99.90;;;;;;5059243;28;20467;-81
2022/04/28 08:59:00;;;;;;;0.60;0.10;;;15.60;99.90;;;;;;5059747;28;20435;-79
2022/04/28 09:01:29;;;;;;;0.60;0.10;;;;;;;;;;5059657;28;20445;-81
2022/04/28 09:03:58;;;;;;;0.60;0.10;;;;;;;;;;5061127;28;20478;-80
2022/04/28 09:06:43;;;;;;;0.60;0.10;;;15.90;99.90;;;;;;5064434;28;20458;-80
2022/04/28 09:09:15;;;;;;;0.60;0.10;;;16.10;99.90;;;;;;5065790;28;20464;-81
2022/04/28 09:11:45;;;;;;;0.60;0.10;;;16.20;99.90;;;;;;5062150;28;20476;-81
2022/04/28 09:14:15;;;;;;;0.60;0.10;;;16.20;99.90;;;;;;5063775;28;20883;-80
2022/04/28 09:16:46;;;;;;;0.60;0.10;;;16.20;99.90;;;;;;5066362;28;20450;-82
2022/04/28 09:19:16;;;;;;;0.70;0.37;;;16.30;99.90;;;;;;5068151;28;20549;-80
2022/04/28 09:21:46;;;;;;;0.60;0.10;;;;;;;;;;5067974;28;20478;-80
2022/04/28 09:24:15;;;;;;;0.60;0.10;;;16.50;99.90;;;;;;5066739;28;20518;-81
2022/04/28 09:26:44;;;;;;;0.60;0.10;;;;;;;;;;5071925;28;20459;-79
2022/04/28 09:29:13;;;;;;;0.60;0.10;;;16.60;99.90;;;;;;5076205;28;20446;-81
2022/04/28 09:31:44;;;;;;;0.60;0.10;;;16.70;99.90;;;;;;5076383;28;20449;-80
2022/04/28 09:34:35;;;;;;;0.60;0.10;;;16.90;99.90;;;;;;5072179;28;20503;-79
2022/04/28 09:37:05;;;;;;;0.60;0.10;;;16.90;99.90;;;;;;5072446;28;20462;-80
2022/04/28 09:42:31;;;;;;;1.47;1.27;;;17.10;99.90;;;;;;5075786;28;20501;-80
2022/04/28 09:45:00;;;;;;;0.60;0.10;;;17.10;99.90;;;;;;5077892;28;20477;-81
2022/04/28 09:47:31;;;;;;;0.60;0.10;;;17.20;99.90;;;;;;5078300;28;20434;-80
2022/04/28 09:49:59;;;;;;;0.60;0.20;;;;;;;;;;5076594;28;20479;-80
2022/04/28 09:52:34;;;;;;;0.60;0.10;;;17.30;99.90;;;;;;5075537;28;20454;-81
2022/04/28 09:55:04;;;;;;;0.60;0.10;;;;;;;;;;5075880;28;20432;-79
2022/04/28 09:57:32;;;;;;;0.60;0.10;;;;;;;;;;5073673;28;20440;-80
2022/04/28 10:00:01;;;;;;;0.60;0.10;;;17.80;99.90;;;;;;5074510;28;20479;-80
2022/04/28 10:02:29;;;;;;;0.60;0.30;;;17.90;99.90;;;;;;5076118;28;20547;-79
2022/04/28 10:05:04;;;;;;;0.60;0.20;;;18.00;99.90;;;;;;5073323;28;20468;-79
2022/04/28 10:07:36;;;;;;;0.60;0.10;;;;;;;;;;5066583;28;20482;-81
2022/04/28 10:10:05;;;;;;;0.60;0.17;;;;;;;;;;5068780;28;20454;-80
2022/04/28 10:12:33;;;;;;;0.60;0.10;;;;;;;;;;5070211;28;20451;-81
2022/04/28 10:15:09;;;;;;;0.60;0.20;;;18.30;99.90;;;;;;5073714;28;20418;-81
2022/04/28 10:17:43;;;;;;;1.00;0.77;;;18.40;99.90;;;;;;5070041;28;20470;-82
2022/04/28 10:20:15;;;;;;;0.60;0.10;;;18.50;99.90;;;;;;5067985;28;20831;-80
2022/04/28 10:23:09;;;;;;;0.60;0.20;;;18.60;99.90;;;;;;5068989;28;20457;-79
2022/04/28 10:34:13;;;;;;;0.60;0.10;;;;;;;;;;5067146;28;20477;-81
2022/04/28 10:36:58;;;;;;;0.60;0.10;;;19.00;99.90;;;;;;5066552;28;20456;-80
2022/04/28 10:39:38;;;;;;;0.60;0.10;;;19.10;99.90;;;;;;5065423;28;21001;-81
2022/04/28 10:42:15;;;;;;;0.60;0.20;;;19.10;99.90;;;;;;5066197;28;20464;-80
2022/04/28 10:44:54;;;;;;;0.60;0.20;;;19.10;99.90;;;;;;5069465;28;20497;-81
2022/04/28 10:47:39;;;;;;;0.60;0.10;;;19.30;99.90;;;;;;5067825;28;21009;-82
2022/04/28 10:50:22;;;;;;;0.60;0.20;;;;;;;;;;5064148;28;20436;-81
2022/04/28 10:52:55;;;;;;;2.10;2.00;;;;;;;;;;5061576;28;20560;-81
2022/04/28 10:55:33;;;;;;;0.60;0.10;;;19.50;99.90;;;;;;5059842;28;20441;-80
2022/04/28 10:58:18;;;;;;;0.60;0.10;;;19.60;99.90;;;;;;5070066;28;20458;-79
2022/04/28 11:00:53;;;;;;;0.60;0.20;;;19.60;99.90;;;;;;5071118;28;20468;-80
2022/04/28 11:03:47;;;;;;;1.97;0.67;;;19.90;99.90;;;;;;5064487;28;20476;-82
2022/04/28 11:06:27;;;;;;;0.60;0.13;;;19.80;99.90;;;;;;5059459;28;20482;-80
2022/04/28 11:09:01;;;;;;;0.60;0.10;;;19.70;99.90;;;;;;5060385;28;20438;-81
2022/04/28 11:11:48;;;;;;;0.60;0.13;;;19.70;99.90;;;;;;5068294;28;20480;-79
2022/04/28 11:14:16;;;;;;;0.60;0.10;;;19.70;99.90;;;;;;5072866;28;20499;-82
2022/04/28 11:16:45;;;;;;;0.70;0.20;;;19.70;99.90;;;;;;5066800;28;20456;-80
2022/04/28 11:19:13;;;;;;;0.70;0.43;;;;;;;;;;5063719;28;20526;-79
2022/04/28 11:21:43;;;;;;;0.60;0.10;;;19.30;99.90;;;;;;5065192;28;20452;-80
2022/04/28 11:24:12;;;;;;;0.60;0.20;;;;;;;;;;5065116;28;20472;-78
2022/04/28 11:26:47;;;;;;;1.73;0.50;;;19.00;99.90;;;;;;5067533;28;21014;-80
2022/04/28 11:29:18;;;;;;;0.90;0.40;;;18.90;99.90;;;;;;5064130;28;20422;-79
2022/04/28 11:31:47;;;;;;;0.60;0.10;;;19.00;99.90;;;;;;5060242;28;20861;-79
2022/04/28 11:34:17;;;;;;;0.60;0.10;;;;;;;;;;5058184;28;20473;-81
2022/04/28 11:36:45;;;;;;;0.70;0.47;;;;;;;;;;5057541;28;20778;-80
2022/04/28 11:39:13;;;;;;;0.60;0.20;;;18.90;99.90;;;;;;5058553;28;20667;-79
2022/04/28 11:41:43;;;;;;;0.60;0.20;;;19.00;99.90;;;;;;5059637;28;20461;-81
2022/04/28 11:44:13;;;;;;;0.67;0.37;;;19.20;99.90;;;;;;5052062;28;20499;-81
2022/04/28 11:46:49;;;;;;;0.60;0.10;;;;;;;;;;5041178;28;20573;-80
2022/04/28 11:49:33;;;;;;;0.60;0.20;;;19.50;99.90;;;;;;5059636;28;20464;-80
2022/04/28 11:52:18;;;;;;;0.60;0.20;;;19.70;99.90;;;;;;5068435;28;20482;-81
2022/04/28 11:54:57;;;;;;;0.60;0.10;;;19.70;99.90;;;;;;5071203;28;20472;-80
2022/04/28 11:57:27;;;;;;;0.60;0.10;;;19.70;99.90;;;;;;5065484;28;20441;-80
2022/04/28 11:59:58;;;;;;;0.60;0.10;;;19.70;99.90;;;;;;5060106;28;20496;-80
2022/04/28 12:02:31;;;;;;;0.60;0.20;;;19.80;99.90;;;;;;5059564;28;20952;-79
2022/04/28 12:05:16;;;;;;;1.20;0.50;;;19.90;99.90;;;;;;5060526;28;20546;-80
2022/04/28 12:07:51;;;;;;;0.60;0.10;;;19.90;99.90;;;;;;5065527;28;20427;-79
2022/04/28 12:16:03;;;;;;;0.60;0.20;;;20.30;99.90;;;;;;5047888;28;20518;-79
2022/04/28 12:21:25;;;;;;;0.80;0.50;;;20.40;99.90;;;;;;5061585;28;20425;-80
2022/04/28 12:23:56;;;;;;;0.60;0.20;;;20.30;99.90;;;;;;5059714;28;20511;-80
2022/04/28 12:26:25;;;;;;;0.70;0.50;;;20.30;99.90;;;;;;5057772;28;20583;-79
2022/04/28 12:28:55;;;;;;;1.77;0.87;;;20.10;99.90;;;;;;5059990;28;20458;-80
2022/04/28 12:31:27;;;;;;;0.60;0.10;;;20.10;99.90;;;;;;5060291;28;20526;-79
2022/04/28 12:34:19;;;;;;;0.60;0.20;;;20.10;99.90;;;;;;5058498;28;20583;-78
2022/04/28 12:36:50;;;;;;;0.60;0.10;;;20.10;99.90;;;;;;5056828;28;20850;-78
2022/04/28 12:39:19;;;;;;;0.60;0.20;;;20.20;99.90;;;;;;5058050;28;20498;-80
2022/04/28 12:41:48;;;;;;;0.90;0.30;;;20.40;99.90;;;;;;5061509;28;20480;-79
2022/04/28 12:44:18;;;;;;;0.60;0.10;;;20.30;99.90;;;;;;5061661;28;20934;-78
2022/04/28 12:46:47;;;;;;;1.00;0.57;;;20.30;99.90;;;;;;5059905;28;20482;-80
2022/04/28 12:49:17;;;;;;;0.60;0.10;;;20.40;99.90;;;;;;5061139;28;20540;-80
2022/04/28 12:51:46;;;;;;;0.63;0.10;;;20.50;99.90;;;;;;5061550;28;20426;-79
2022/04/28 12:54:15;;;;;;;0.60;0.10;;;20.50;99.90;;;;;;5060226;28;20465;-78
2022/04/28 12:56:48;;;;;;;0.60;0.10;;;20.50;99.90;;;;;;5066873;28;20442;-79
2022/04/28 12:59:21;;;;;;;0.80;0.40;;;20.60;99.90;;;;;;5079156;28;20516;-77
2022/04/28 13:01:53;;;;;;;0.60;0.10;;;20.40;99.90;;;;;;5070530;28;20453;-82
2022/04/28 13:04:23;;;;;;;0.70;0.20;;;20.40;99.90;;;;;;5068412;28;20531;-80
2022/04/28 13:06:51;;;;;;;0.60;0.20;;;;;;;;;;5073422;28;20465;-81
2022/04/28 13:09:21;;;;;;;0.60;0.17;;;20.60;99.90;;;;;;5073620;28;20535;-79
2022/04/28 13:11:50;;;;;;;0.60;0.10;;;20.80;99.90;;;;;;5075942;28;20445;-80
2022/04/28 13:14:21;;;;;;;0.70;0.20;;;20.80;99.90;;;;;;5076745;28;20476;-78
2022/04/28 13:16:51;;;;;;;0.70;0.10;;;20.70;99.90;;;;;;5077863;28;20426;-78
2022/04/28 13:19:20;;;;;;;0.60;0.20;;;20.70;99.90;;;;;;5078434;28;20454;-83
2022/04/28 13:21:48;;;;;;;0.63;0.10;;;20.80;99.90;;;;;;5079532;28;20434;-80
2022/04/28 13:24:17;;;;;;;0.67;0.13;;;20.80;99.90;;;;;;5079360;28;20476;-80
2022/04/28 13:26:45;;;;;;;0.63;0.20;;;20.60;99.90;;;;;;5078338;28;20619;-80
2022/04/28 13:29:13;;;;;;;0.70;0.30;;;20.50;99.90;;;;;;5074534;28;20460;-79
2022/04/28 13:31:43;;;;;;;0.60;0.10;;;20.60;99.90;;;;;;5078202;28;20456;-78
2022/04/28 13:34:11;;;;;;;1.70;1.60;;;20.70;99.90;;;;;;5079248;28;20480;-81
2022/04/28 13:36:39;;;;;;;0.60;0.10;;;20.70;99.90;;;;;;5077960;28;20463;-80
2022/04/28 13:39:07;;;;;;;0.70;0.20;;;20.60;99.90;;;;;;5078541;28;20434;-80
2022/04/28 13:41:35;;;;;;;0.60;0.20;;;20.50;99.90;;;;;;5078519;28;20525;-81
2022/04/28 13:44:06;;;;;;;0.60;0.10;;;20.50;99.90;;;;;;5077734;28;20469;-81
2022/04/28 13:46:34;;;;;;;0.70;0.20;;;20.60;99.90;;;;;;5078052;28;20489;-82
2022/04/28 13:49:04;;;;;;;0.70;0.30;;;20.50;99.90;;;;;;5078936;28;20429;-80
2022/04/28 13:51:32;;;;;;;0.90;0.70;;;20.50;99.90;;;;;;5078507;28;20492;-82
2022/04/28 13:53:59;;;;;;;0.70;0.20;;;20.60;99.90;;;;;;5079083;28;20509;-83
2022/04/28 13:56:28;;;;;;;0.63;0.20;;;20.60;99.90;;;;;;5078372;28;20454;-82
2022/04/28 13:58:56;;;;;;;0.60;0.10;;;20.70;99.90;;;;;;5078102;28;20446;-83
2022/04/28 14:01:24;;;;;;;0.60;0.20;;;20.80;99.90;;;;;;5078002;28;20502;-82
2022/04/28 14:03:52;;;;;;;0.60;0.20;;;20.80;99.90;;;;;;5071345;28;20470;-81
2022/04/28 14:06:21;;;;;;;0.70;0.20;;;21.10;99.90;;;;;;5065333;28;20820;-79
2022/04/28 14:08:49;;;;;;;0.70;0.20;;;21.10;99.90;;;;;;5063985;28;20451;-80
2022/04/28 14:11:17;;;;;;;0.70;0.30;;;21.20;99.90;;;;;;5063261;28;20442;-81
2022/04/28 14:13:46;;;;;;;0.70;0.17;;;21.20;99.90;;;;;;5063136;28;20500;-81